Lahania-kapalua, Lahaina Kapalua Airport (PHJH)

NameLahaina Kapalua Airport
CityLahania-kapalua
CountryUnited States
ICAOPHJH
IATAJHM
Altitude78 m
CoordinatesGoogle Map
Live Air TrafficLiveATC.net
METARPHJH 222145Z 07013G25KT 15SM FEW050 31/18 A2998
2019-10-22 21:45:00 Wind: East-Northeast (70°) 6.69 m/s - Visibility: 24140.1 m - Temperature: 31 °C - Dew point: 18 °C - Humidity: 45.8% - Pressure: 1015.24 hPa
Statistics

The table below shows the detailed information of all flights to/from Lahania-kapalua, Lahaina Kapalua Airport (PHJH).